KCKV/CKV METAR and TAF weather

Enter ICAO airport designator
Station Type Date Time Source
KCKV METAR 2024/02/26 17:52 UTC NOAA

KCKV 261752Z AUTO 18008KT 10SM CLR 22/08 A2990 RMK AO2 SLP122 T02220078 10222 20139 58015


Station Type Date Time Source
KCKV Decoded METAR 2024/02/26 17:52 UTC NOAA

CLARKSVILLE OUTLAW FIELD, TN, United States (KCKV) 36-37N 87-25W 165M
Feb 26, 2024 - 12:52 PM EST / 2024.02.26 1752 UTC
Wind: from the S (180 degrees) at 9 MPH (8 KT):0
Visibility: 10 mile(s):0
Sky conditions: clear
Temperature: 72.0 F (22.2 C)
Dew Point: 46.0 F (7.8 C)
Relative Humidity: 39%
Pressure (altimeter): 29.9 in. Hg (1012 hPa)
Pressure tendency: 0.04 inches (1.5 hPa) lower than three hours ago
ob: KCKV 261752Z AUTO 18008KT 10SM CLR 22/08 A2990 RMK AO2 SLP122 T02220078 10222 20139 58015
cycle: 18

Station Type Date Time Source
KCKV TAF 2024/02/26 18:22 UTC NOAA